createdAt,value
2019-05-10T00:00:48.998Z,77.73
2019-05-10T00:03:34.855Z,77.86
2019-05-10T00:06:20.985Z,78.54
2019-05-10T00:08:48.176Z,78.82
2019-05-10T00:11:39.855Z,79.92
2019-05-10T00:14:31.715Z,79.77
2019-05-10T00:17:08.958Z,80.83
2019-05-10T00:19:36.724Z,80.73
2019-05-10T00:22:04.748Z,81.03
2019-05-10T00:24:33.585Z,80.53
2019-05-10T00:27:03.673Z,80.00
2019-05-10T00:29:31.608Z,79.66
2019-05-10T00:31:59.489Z,79.54
2019-05-10T00:34:27.347Z,79.47
2019-05-10T00:36:55.167Z,79.74
2019-05-10T00:39:23.032Z,79.77
2019-05-10T00:41:51.028Z,80.18
2019-05-10T00:44:19.749Z,80.63
2019-05-10T00:46:47.695Z,81.17
2019-05-10T00:49:15.441Z,81.28
2019-05-10T00:51:43.743Z,81.29
2019-05-10T00:54:11.601Z,81.32
2019-05-10T00:56:39.504Z,81.19
2019-05-10T00:59:07.426Z,81.85
2019-05-10T01:01:35.301Z,81.59
2019-05-10T01:04:03.313Z,81.85
2019-05-10T01:06:31.239Z,81.94
2019-05-10T01:09:00.922Z,81.82
2019-05-10T01:11:28.727Z,81.92
2019-05-10T01:13:56.530Z,81.38
2019-05-10T01:16:24.385Z,81.09
2019-05-10T01:18:52.109Z,81.05
2019-05-10T01:21:19.837Z,80.66
2019-05-10T01:23:47.892Z,80.66
2019-05-10T01:26:16.771Z,80.48
2019-05-10T01:28:46.838Z,80.25
2019-05-10T01:31:15.364Z,80.12
2019-05-10T01:33:43.254Z,80.08
2019-05-10T01:36:11.102Z,79.86
2019-05-10T01:38:38.889Z,80.00
2019-05-10T01:41:06.669Z,79.93
2019-05-10T01:43:34.465Z,79.73
2019-05-10T01:46:02.341Z,79.52
2019-05-10T01:48:30.234Z,79.39
2019-05-10T01:50:57.973Z,79.39
2019-05-10T01:53:25.773Z,79.50
2019-05-10T01:55:53.495Z,79.56
2019-05-10T01:58:21.288Z,79.83
2019-05-10T02:00:48.992Z,79.79
2019-05-10T02:03:16.851Z,79.73
2019-05-10T02:05:44.760Z,79.83
2019-05-10T02:08:12.592Z,79.81
2019-05-10T02:10:40.660Z,80.22
2019-05-10T02:13:08.516Z,80.44
2019-05-10T02:15:36.374Z,80.16
2019-05-10T02:18:04.380Z,80.37
2019-05-10T02:20:32.221Z,80.42
2019-05-10T02:23:00.134Z,80.39
2019-05-10T02:25:27.965Z,80.40
2019-05-10T02:27:55.720Z,80.58
2019-05-10T02:30:23.652Z,80.53
2019-05-10T02:32:52.363Z,80.95
2019-05-10T02:35:20.162Z,81.18
2019-05-10T02:37:48.117Z,81.23
2019-05-10T02:40:16.319Z,81.11
2019-05-10T02:42:44.043Z,80.97
2019-05-10T02:45:12.320Z,80.95
2019-05-10T02:47:40.175Z,80.93
2019-05-10T02:50:08.350Z,81.05
2019-05-10T02:52:36.198Z,80.98
2019-05-10T02:55:04.273Z,81.09
2019-05-10T02:57:32.516Z,80.73
2019-05-10T03:00:02.426Z,80.76
2019-05-10T03:02:30.973Z,80.85
2019-05-10T03:05:00.008Z,80.95
2019-05-10T03:07:31.172Z,80.86
2019-05-10T03:10:00.193Z,81.05
2019-05-10T03:12:28.514Z,81.02
2019-05-10T03:14:58.035Z,80.93
2019-05-10T03:17:27.262Z,80.80
2019-05-10T03:19:55.716Z,80.76
2019-05-10T03:22:25.164Z,80.64
2019-05-10T03:24:53.582Z,80.78
2019-05-10T03:27:21.684Z,80.76
2019-05-10T03:29:49.588Z,80.59
2019-05-10T03:32:19.857Z,80.67
2019-05-10T03:34:48.066Z,80.46
2019-05-10T03:37:16.222Z,80.68
2019-05-10T03:39:44.121Z,80.59
2019-05-10T03:42:11.951Z,80.53
2019-05-10T03:44:39.743Z,80.52
2019-05-10T03:47:07.594Z,80.46
2019-05-10T03:49:35.491Z,80.70
2019-05-10T03:52:03.756Z,80.71
2019-05-10T03:54:31.686Z,81.17
2019-05-10T03:57:11.721Z,81.14
2019-05-10T03:59:29.129Z,81.75
2019-05-10T04:01:56.869Z,81.97
2019-05-10T04:04:24.991Z,81.96
2019-05-10T04:06:53.324Z,81.96
2019-05-10T04:09:21.424Z,81.82
2019-05-10T04:11:49.241Z,81.75
2019-05-10T04:14:17.064Z,82.00
2019-05-10T04:16:44.900Z,82.50
2019-05-10T04:19:12.846Z,82.28
2019-05-10T04:21:40.651Z,82.26
2019-05-10T04:24:08.520Z,82.16
2019-05-10T04:26:36.437Z,82.69
2019-05-10T04:29:04.381Z,82.72
2019-05-10T04:34:26.034Z,83.07
2019-05-10T04:36:53.864Z,83.38
2019-05-10T04:39:21.977Z,83.49
2019-05-10T04:41:49.767Z,84.21
2019-05-10T04:44:17.518Z,84.42
2019-05-10T04:46:45.316Z,85.53
2019-05-10T04:49:13.055Z,85.57
2019-05-10T04:51:40.845Z,85.95
2019-05-10T04:54:08.683Z,86.10
2019-05-10T04:56:36.478Z,86.10
2019-05-10T04:59:04.226Z,86.19
2019-05-10T05:01:32.112Z,86.06
2019-05-10T05:03:59.865Z,85.40
2019-05-10T05:06:27.672Z,87.43
2019-05-10T05:08:55.570Z,88.06
2019-05-10T05:11:23.462Z,88.42
2019-05-10T05:13:51.216Z,89.68
2019-05-10T05:16:19.318Z,90.44
2019-05-10T05:18:47.259Z,91.18
2019-05-10T05:21:15.133Z,91.10
2019-05-10T05:23:42.835Z,90.60
2019-05-10T05:26:10.752Z,90.87
2019-05-10T05:28:38.494Z,93.43
2019-05-10T05:31:06.476Z,94.54
2019-05-10T05:33:34.979Z,94.06
2019-05-10T05:36:03.322Z,93.00
2019-05-10T05:38:31.560Z,94.09
2019-05-10T05:40:59.499Z,94.12
2019-05-10T05:43:27.223Z,93.95
2019-05-10T05:45:55.039Z,93.92
2019-05-10T05:48:23.151Z,93.22
2019-05-10T05:50:52.665Z,92.98
2019-05-10T05:53:22.470Z,91.97
2019-05-10T05:55:50.570Z,91.96
2019-05-10T05:58:26.814Z,92.21
2019-05-10T06:00:48.059Z,91.60
2019-05-10T06:03:19.508Z,93.39
2019-05-10T06:05:46.434Z,93.26
2019-05-10T06:08:22.720Z,90.96
2019-05-10T06:10:56.136Z,90.60
2019-05-10T06:13:16.394Z,91.04
2019-05-10T06:15:44.224Z,91.34
2019-05-10T06:18:12.292Z,91.45
2019-05-10T06:20:44.615Z,91.71
2019-05-10T06:23:10.288Z,91.60
2019-05-10T06:25:42.050Z,91.74
2019-05-10T06:28:25.068Z,91.42
2019-05-10T06:30:38.004Z,90.26
2019-05-10T06:33:12.799Z,91.17
2019-05-10T06:35:36.436Z,92.23
2019-05-10T06:38:04.347Z,91.05
2019-05-10T06:40:39.447Z,90.72
2019-05-10T06:43:06.920Z,90.56
2019-05-10T06:45:32.284Z,90.68
2019-05-10T06:48:00.082Z,89.49
2019-05-10T06:50:29.796Z,91.72
2019-05-10T06:53:00.556Z,100.00
2019-05-10T06:55:27.388Z,89.79
2019-05-10T06:57:59.510Z,89.45
2019-05-10T07:00:24.943Z,89.92
2019-05-10T07:02:52.742Z,89.91
2019-05-10T07:05:21.058Z,88.84
2019-05-10T07:07:49.496Z,89.02
2019-05-10T07:10:19.470Z,88.69
2019-05-10T07:12:49.517Z,88.14
2019-05-10T07:15:19.228Z,86.11
2019-05-10T07:17:47.892Z,85.56
2019-05-10T07:20:16.223Z,85.37
2019-05-10T07:22:44.067Z,83.82
2019-05-10T07:25:12.770Z,83.44
2019-05-10T07:27:40.744Z,83.54
2019-05-10T07:30:08.695Z,82.83
2019-05-10T07:32:36.889Z,81.87
2019-05-10T07:35:04.886Z,81.33
2019-05-10T07:37:33.475Z,81.16
2019-05-10T07:40:03.528Z,80.88
2019-05-10T07:42:31.186Z,79.54
2019-05-10T07:44:58.896Z,79.54
2019-05-10T07:47:30.398Z,78.79
2019-05-10T07:49:56.411Z,78.39
2019-05-10T07:52:24.635Z,78.39
2019-05-10T07:54:52.344Z,78.84
2019-05-10T07:57:24.760Z,78.54
2019-05-10T07:59:51.307Z,78.54
2019-05-10T08:02:19.370Z,78.06
2019-05-10T08:04:50.571Z,77.82
2019-05-10T08:07:18.596Z,78.47
2019-05-10T08:09:48.688Z,78.47
2019-05-10T08:12:16.115Z,78.19
2019-05-10T08:14:44.559Z,78.44
2019-05-10T08:17:13.661Z,78.44
2019-05-10T08:19:41.438Z,78.74
2019-05-10T08:22:09.437Z,77.23
2019-05-10T08:24:37.346Z,77.23
2019-05-10T08:27:11.454Z,77.29
2019-05-10T08:29:34.870Z,77.29
2019-05-10T08:32:03.049Z,76.61
2019-05-10T08:34:37.416Z,77.18
2019-05-10T08:37:02.705Z,78.10
2019-05-10T08:39:34.751Z,78.10
2019-05-10T08:42:04.889Z,76.85
2019-05-10T08:44:29.925Z,77.52
2019-05-10T08:46:57.790Z,77.06
2019-05-10T08:49:32.590Z,76.20
2019-05-10T08:51:55.292Z,76.15
2019-05-10T08:54:26.311Z,76.15
2019-05-10T08:57:00.865Z,76.83
2019-05-10T08:59:26.475Z,76.99
2019-05-10T09:01:53.775Z,76.98
2019-05-10T09:04:22.336Z,76.47
2019-05-10T09:06:55.444Z,76.43
2019-05-10T09:09:22.641Z,76.08
2019-05-10T09:11:52.257Z,75.65
2019-05-10T09:14:22.002Z,75.14
2019-05-10T09:16:57.612Z,75.14
2019-05-10T09:19:27.669Z,74.87
2019-05-10T09:21:54.322Z,74.18
2019-05-10T09:24:19.857Z,75.32
2019-05-10T09:26:54.845Z,74.55
2019-05-10T09:29:17.350Z,74.30
2019-05-10T09:31:50.481Z,73.20
2019-05-10T09:34:14.816Z,72.15
2019-05-10T09:36:46.459Z,72.22
2019-05-10T09:39:17.633Z,72.63
2019-05-10T09:41:44.508Z,72.68
2019-05-10T09:44:13.049Z,73.02
2019-05-10T09:46:42.220Z,73.26
2019-05-10T09:49:15.821Z,73.25
2019-05-10T09:51:42.084Z,73.11
2019-05-10T09:54:10.227Z,73.26
2019-05-10T09:56:44.165Z,73.56
2019-05-10T09:59:08.569Z,74.15
2019-05-10T10:01:37.132Z,73.99
2019-05-10T10:04:05.741Z,74.03
2019-05-10T10:06:34.075Z,73.40
2019-05-10T10:09:02.753Z,72.90
2019-05-10T10:11:30.539Z,73.49
2019-05-10T10:14:01.766Z,73.65
2019-05-10T10:16:28.254Z,73.42
2019-05-10T10:18:56.423Z,72.93
2019-05-10T10:21:30.489Z,72.95
2019-05-10T10:23:53.819Z,72.78
2019-05-10T10:26:22.449Z,72.84
2019-05-10T10:28:55.094Z,72.83
2019-05-10T10:31:29.100Z,72.83
2019-05-10T10:33:58.161Z,72.48
2019-05-10T10:36:19.696Z,72.09
2019-05-10T10:38:49.593Z,72.03
2019-05-10T10:41:25.960Z,71.26
2019-05-10T10:43:48.778Z,71.39
2019-05-10T10:46:19.656Z,71.73
2019-05-10T10:48:49.029Z,71.43
2019-05-10T10:51:18.110Z,71.63
2019-05-10T10:53:47.069Z,72.47
2019-05-10T10:56:17.482Z,72.00
2019-05-10T10:58:44.728Z,71.95
2019-05-10T11:01:21.673Z,71.90
2019-05-10T11:03:42.231Z,71.59
2019-05-10T11:06:10.022Z,71.62
2019-05-10T11:08:37.811Z,70.94
2019-05-10T11:11:05.589Z,70.94
2019-05-10T11:13:45.379Z,70.30
2019-05-10T11:16:09.728Z,70.17
2019-05-10T11:18:32.855Z,69.71
2019-05-10T11:21:02.003Z,70.41
2019-05-10T11:23:34.239Z,70.41
2019-05-10T11:26:01.345Z,70.28
2019-05-10T11:28:38.199Z,69.70
2019-05-10T11:31:01.138Z,70.17
2019-05-10T11:33:30.794Z,70.36
2019-05-10T11:36:03.952Z,70.65
2019-05-10T11:38:28.120Z,70.74
2019-05-10T11:40:55.995Z,70.90
2019-05-10T11:43:27.034Z,71.22
2019-05-10T11:45:53.418Z,71.54
2019-05-10T11:48:21.578Z,72.26
2019-05-10T11:50:51.340Z,72.10
2019-05-10T11:53:23.620Z,72.67
2019-05-10T11:55:51.521Z,72.81
2019-05-10T11:58:18.721Z,73.16
2019-05-10T12:00:46.588Z,73.21
2019-05-10T12:03:18.391Z,72.12
2019-05-10T12:05:44.053Z,73.22
2019-05-10T12:08:13.010Z,73.93
2019-05-10T12:10:44.882Z,73.61
2019-05-10T12:13:18.577Z,73.61
2019-05-10T12:15:42.855Z,73.77
2019-05-10T12:18:14.906Z,73.69
2019-05-10T12:20:54.435Z,75.35
2019-05-10T12:23:13.245Z,73.66
2019-05-10T12:25:53.063Z,71.19
2019-05-10T12:28:09.431Z,69.75
2019-05-10T12:30:37.548Z,69.73
2019-05-10T12:33:09.448Z,70.18
2019-05-10T12:35:39.774Z,69.72
2019-05-10T12:38:04.998Z,67.76
2019-05-10T12:40:32.736Z,65.05
2019-05-10T12:43:00.744Z,64.91
2019-05-10T12:45:30.835Z,64.68
2019-05-10T12:47:58.354Z,65.09
2019-05-10T12:50:26.100Z,62.01
2019-05-10T12:53:03.147Z,63.46
2019-05-10T12:55:26.859Z,63.54
2019-05-10T12:57:54.650Z,61.63
2019-05-10T13:00:23.198Z,60.99
2019-05-10T13:02:53.034Z,61.19
2019-05-10T13:05:30.833Z,59.14
2019-05-10T13:07:50.283Z,59.91
2019-05-10T13:10:18.215Z,57.56
2019-05-10T13:12:47.474Z,57.48
2019-05-10T13:15:15.671Z,57.89
2019-05-10T13:17:50.330Z,55.90
2019-05-10T13:20:13.381Z,56.49
2019-05-10T13:22:41.145Z,56.87
2019-05-10T13:25:09.087Z,54.72
2019-05-10T13:27:38.046Z,56.06
2019-05-10T13:30:07.170Z,57.22
2019-05-10T13:32:34.966Z,57.08
2019-05-10T13:35:02.965Z,57.57
2019-05-10T13:37:30.908Z,57.00
2019-05-10T13:42:28.498Z,56.28
2019-05-10T13:44:56.768Z,56.17
2019-05-10T13:47:24.546Z,57.58
2019-05-10T13:49:52.977Z,57.61
2019-05-10T13:52:20.887Z,58.46
2019-05-10T13:54:48.694Z,59.34
2019-05-10T13:57:26.032Z,60.61
2019-05-10T13:59:55.127Z,61.07
2019-05-10T14:02:32.684Z,59.79
2019-05-10T14:04:54.205Z,59.96
2019-05-10T14:07:21.982Z,60.22
2019-05-10T14:09:49.753Z,60.53
2019-05-10T14:12:23.288Z,60.65
2019-05-10T14:14:47.995Z,60.44
2019-05-10T14:17:15.858Z,59.73
2019-05-10T14:19:43.859Z,60.36
2019-05-10T14:22:12.309Z,61.22
2019-05-10T14:24:40.062Z,62.65
2019-05-10T14:27:07.822Z,63.70
2019-05-10T14:29:36.850Z,63.76
2019-05-10T14:32:05.045Z,64.38
2019-05-10T14:34:38.048Z,64.40
2019-05-10T14:37:02.613Z,64.40
2019-05-10T14:39:30.498Z,63.62
2019-05-10T14:41:59.039Z,63.42
2019-05-10T14:44:27.331Z,63.04
2019-05-10T14:46:55.161Z,62.01
2019-05-10T14:49:23.129Z,60.18
2019-05-10T14:51:58.959Z,59.89
2019-05-10T14:54:20.838Z,59.64
2019-05-10T14:56:48.580Z,58.11
2019-05-10T14:59:20.087Z,57.91
2019-05-10T15:01:47.934Z,58.23
2019-05-10T15:04:20.258Z,57.51
2019-05-10T15:06:46.035Z,57.26
2019-05-10T15:09:21.736Z,56.52
2019-05-10T15:11:44.772Z,56.75
2019-05-10T15:14:12.552Z,55.89
2019-05-10T15:16:40.269Z,56.47
2019-05-10T15:19:08.066Z,55.80
2019-05-10T15:21:35.791Z,56.15
2019-05-10T15:24:03.761Z,56.75
2019-05-10T15:26:37.108Z,56.86
2019-05-10T15:29:01.629Z,57.45
2019-05-10T15:31:30.831Z,57.36
2019-05-10T15:33:58.944Z,56.41
2019-05-10T15:36:29.474Z,56.37
2019-05-10T15:38:56.576Z,56.14
2019-05-10T15:41:24.398Z,56.27
2019-05-10T15:43:53.530Z,56.35
2019-05-10T15:46:23.381Z,55.79
2019-05-10T15:48:51.467Z,55.77
2019-05-10T15:51:19.168Z,56.12
2019-05-10T15:53:46.982Z,55.06
2019-05-10T15:56:15.290Z,54.53
2019-05-10T15:58:43.256Z,54.51
2019-05-10T16:01:14.124Z,55.47
2019-05-10T16:03:41.026Z,54.60
2019-05-10T16:06:08.892Z,54.37
2019-05-10T16:08:37.258Z,55.07
2019-05-10T16:11:18.039Z,55.30
2019-05-10T16:13:35.469Z,55.42
2019-05-10T16:16:03.545Z,55.71
2019-05-10T16:18:33.452Z,54.58
2019-05-10T16:21:00.916Z,55.33
2019-05-10T16:23:28.818Z,55.08
2019-05-10T16:25:57.369Z,54.29
2019-05-10T16:28:25.279Z,54.35
2019-05-10T16:30:53.033Z,54.96
2019-05-10T16:33:23.505Z,55.56
2019-05-10T16:35:52.080Z,56.17
2019-05-10T16:38:20.220Z,55.85
2019-05-10T16:40:57.377Z,56.32
2019-05-10T16:43:23.989Z,56.83
2019-05-10T16:45:47.378Z,57.34
2019-05-10T16:48:15.208Z,57.37
2019-05-10T16:50:42.937Z,58.02
2019-05-10T16:53:11.119Z,58.30
2019-05-10T16:55:40.765Z,58.53
2019-05-10T16:58:09.569Z,58.67
2019-05-10T17:00:40.568Z,58.93
2019-05-10T17:03:08.154Z,59.13
2019-05-10T17:05:36.991Z,59.29
2019-05-10T17:08:04.707Z,59.57
2019-05-10T17:10:34.451Z,59.95
2019-05-10T17:13:04.804Z,59.99
2019-05-10T17:15:33.920Z,60.08
2019-05-10T17:18:01.856Z,60.33
2019-05-10T17:20:29.777Z,60.46
2019-05-10T17:23:07.981Z,60.60
2019-05-10T17:25:27.249Z,60.73
2019-05-10T17:27:58.089Z,60.76
2019-05-10T17:30:27.769Z,60.87
2019-05-10T17:32:57.843Z,61.17
2019-05-10T17:35:25.762Z,61.41
2019-05-10T17:37:53.605Z,62.06
2019-05-10T17:40:22.077Z,62.92
2019-05-10T17:42:51.590Z,62.88
2019-05-10T17:45:40.447Z,63.37
2019-05-10T17:48:10.224Z,63.26
2019-05-10T17:50:38.071Z,63.20
2019-05-10T17:53:07.192Z,64.13
2019-05-10T17:55:35.183Z,64.47
2019-05-10T17:58:03.219Z,65.09
2019-05-10T18:00:31.004Z,65.10
2019-05-10T18:02:58.979Z,65.07
2019-05-10T18:05:26.800Z,65.05
2019-05-10T18:07:54.500Z,66.82
2019-05-10T18:10:22.473Z,66.21
2019-05-10T18:12:50.195Z,65.81
2019-05-10T18:15:18.190Z,64.50
2019-05-10T18:17:45.937Z,65.22
2019-05-10T18:20:13.939Z,66.84
2019-05-10T18:22:43.698Z,64.95
2019-05-10T18:25:19.338Z,65.47
2019-05-10T18:27:43.073Z,64.65
2019-05-10T18:30:12.101Z,63.32
2019-05-10T18:32:39.873Z,63.18
2019-05-10T18:35:14.796Z,63.11
2019-05-10T18:37:53.681Z,63.23
2019-05-10T18:40:25.327Z,62.66
2019-05-10T18:42:51.314Z,62.50
2019-05-10T18:45:23.381Z,62.34
2019-05-10T18:47:48.990Z,61.89
2019-05-10T18:50:17.609Z,61.29
2019-05-10T18:52:45.504Z,61.04
2019-05-10T18:55:13.632Z,61.68
2019-05-10T18:57:45.393Z,62.33
2019-05-10T19:00:11.580Z,62.80
2019-05-10T19:02:39.570Z,63.00
2019-05-10T19:05:07.551Z,62.63
2019-05-10T19:07:35.674Z,63.08
2019-05-10T19:10:04.282Z,63.45
2019-05-10T19:12:32.733Z,63.94
2019-05-10T19:15:02.379Z,64.24
2019-05-10T19:17:30.668Z,64.53
2019-05-10T19:19:58.393Z,64.81
2019-05-10T19:22:26.251Z,65.15
2019-05-10T19:24:56.922Z,65.46
2019-05-10T19:27:25.174Z,67.90
2019-05-10T19:29:53.268Z,66.67
2019-05-10T19:32:22.158Z,64.64
2019-05-10T19:34:57.092Z,64.92
2019-05-10T19:37:31.326Z,65.48
2019-05-10T19:39:50.962Z,66.15
2019-05-10T19:42:18.847Z,66.59
2019-05-10T19:44:47.100Z,66.95
2019-05-10T19:47:17.616Z,67.42
2019-05-10T19:49:45.767Z,67.36
2019-05-10T19:52:14.876Z,67.45
2019-05-10T19:54:42.767Z,67.77
2019-05-10T19:57:16.437Z,68.01
2019-05-10T19:59:43.967Z,68.22
2019-05-10T20:02:11.035Z,68.46
2019-05-10T20:04:38.771Z,68.73
2019-05-10T20:07:06.553Z,69.07
2019-05-10T20:09:34.315Z,69.00
2019-05-10T20:12:02.089Z,69.52
2019-05-10T20:14:29.818Z,69.32
2019-05-10T20:16:57.585Z,69.34
2019-05-10T20:19:25.404Z,69.51
2019-05-10T20:21:53.125Z,69.59
2019-05-10T20:24:21.016Z,69.82
2019-05-10T20:26:48.799Z,69.99
2019-05-10T20:29:16.607Z,69.66
2019-05-10T20:31:45.152Z,68.77
2019-05-10T20:34:12.962Z,69.16
2019-05-10T20:36:40.763Z,69.47
2019-05-10T20:39:09.162Z,69.54
2019-05-10T20:41:38.723Z,70.05
2019-05-10T20:44:06.761Z,70.32
2019-05-10T20:46:34.576Z,70.80
2019-05-10T20:49:02.369Z,71.00
2019-05-10T20:51:30.096Z,71.07
2019-05-10T20:53:58.583Z,71.29
2019-05-10T20:56:26.321Z,71.42
2019-05-10T20:58:54.170Z,72.97
2019-05-10T21:01:21.908Z,71.77
2019-05-10T21:03:49.922Z,69.91
2019-05-10T21:06:17.902Z,68.89
2019-05-10T21:08:47.760Z,69.18
2019-05-10T21:11:15.837Z,69.67
2019-05-10T21:13:44.751Z,70.13
2019-05-10T21:16:12.981Z,70.66
2019-05-10T21:18:41.090Z,71.01
2019-05-10T21:21:09.884Z,71.51
2019-05-10T21:23:37.909Z,71.56
2019-05-10T21:26:05.792Z,71.99
2019-05-10T21:28:33.640Z,72.37
2019-05-10T21:31:01.509Z,72.66
2019-05-10T21:33:30.813Z,73.16
2019-05-10T21:35:58.862Z,73.13
2019-05-10T21:38:33.011Z,73.53
2019-05-10T21:40:56.735Z,73.80
2019-05-10T21:43:25.443Z,75.16
2019-05-10T21:45:53.591Z,74.89
2019-05-10T21:48:21.627Z,74.62
2019-05-10T21:50:49.943Z,75.08
2019-05-10T21:53:19.324Z,75.56
2019-05-10T21:55:47.052Z,75.78
2019-05-10T21:58:14.955Z,81.17
2019-05-10T22:00:46.704Z,77.70
2019-05-10T22:03:14.492Z,73.29
2019-05-10T22:05:42.742Z,73.32
2019-05-10T22:08:10.789Z,73.70
2019-05-10T22:10:38.968Z,74.43
2019-05-10T22:13:07.803Z,74.45
2019-05-10T22:15:35.616Z,74.33
2019-05-10T22:18:03.666Z,74.33
2019-05-10T22:20:31.574Z,74.86
2019-05-10T22:23:00.028Z,75.31
2019-05-10T22:25:27.881Z,75.48
2019-05-10T22:27:56.319Z,75.53
2019-05-10T22:30:24.366Z,75.13
2019-05-10T22:32:53.014Z,75.62
2019-05-10T22:35:20.790Z,75.62
2019-05-10T22:37:48.855Z,75.22
2019-05-10T22:40:16.769Z,75.04
2019-05-10T22:42:44.547Z,75.28
2019-05-10T22:45:12.678Z,75.32
2019-05-10T22:47:40.611Z,75.77
2019-05-10T22:50:08.748Z,75.46
2019-05-10T22:52:36.538Z,75.36
2019-05-10T22:55:04.722Z,75.32
2019-05-10T22:57:33.196Z,75.68
2019-05-10T23:00:01.182Z,75.93
2019-05-10T23:02:29.078Z,75.81
2019-05-10T23:04:56.843Z,75.72
2019-05-10T23:07:24.668Z,75.60
2019-05-10T23:09:52.514Z,75.42
2019-05-10T23:12:20.502Z,75.42
2019-05-10T23:14:48.264Z,75.18
2019-05-10T23:17:16.094Z,75.34
2019-05-10T23:19:43.845Z,75.05
2019-05-10T23:22:11.656Z,74.84
2019-05-10T23:24:39.402Z,74.84
2019-05-10T23:27:07.361Z,74.84
2019-05-10T23:29:36.225Z,74.53
2019-05-10T23:32:04.622Z,74.54
2019-05-10T23:34:32.435Z,74.28
2019-05-10T23:37:00.301Z,74.24
2019-05-10T23:39:40.088Z,74.24
2019-05-10T23:41:57.883Z,74.06
2019-05-10T23:44:25.903Z,74.01
2019-05-10T23:46:53.717Z,73.77
2019-05-10T23:49:21.725Z,73.82
2019-05-10T23:51:49.889Z,73.66
2019-05-10T23:54:17.708Z,73.66
2019-05-10T23:56:45.462Z,73.41
2019-05-10T23:59:13.286Z,73.54
